sensor_id;sensor_type;location;lat;lon;timestamp;P1;durP1;ratioP1;P2;durP2;ratioP2
55537;SDS011;41383;51.418;7.286;2023-03-21T00:01:48;13.98;;;6.97;;
55537;SDS011;41383;51.418;7.286;2023-03-21T00:04:15;17.90;;;6.80;;
55537;SDS011;41383;51.418;7.286;2023-03-21T00:06:40;13.90;;;7.57;;
55537;SDS011;41383;51.418;7.286;2023-03-21T00:09:06;14.43;;;6.60;;
55537;SDS011;41383;51.418;7.286;2023-03-21T00:11:31;12.38;;;6.28;;
55537;SDS011;41383;51.418;7.286;2023-03-21T00:13:56;15.13;;;5.28;;
55537;SDS011;41383;51.418;7.286;2023-03-21T00:16:26;11.98;;;5.65;;
55537;SDS011;41383;51.418;7.286;2023-03-21T00:18:54;13.93;;;5.90;;
55537;SDS011;41383;51.418;7.286;2023-03-21T00:21:21;14.93;;;5.10;;
55537;SDS011;41383;51.418;7.286;2023-03-21T00:23:52;17.25;;;5.15;;
55537;SDS011;41383;51.418;7.286;2023-03-21T00:26:18;18.65;;;7.60;;
55537;SDS011;41383;51.418;7.286;2023-03-21T00:28:44;16.65;;;6.45;;
55537;SDS011;41383;51.418;7.286;2023-03-21T00:31:10;10.10;;;4.47;;
55537;SDS011;41383;51.418;7.286;2023-03-21T00:33:35;16.08;;;6.22;;
55537;SDS011;41383;51.418;7.286;2023-03-21T00:36:02;14.25;;;6.70;;
55537;SDS011;41383;51.418;7.286;2023-03-21T00:38:28;14.38;;;5.60;;
55537;SDS011;41383;51.418;7.286;2023-03-21T00:40:54;18.33;;;7.22;;
55537;SDS011;41383;51.418;7.286;2023-03-21T00:43:19;11.45;;;5.80;;
55537;SDS011;41383;51.418;7.286;2023-03-21T00:45:47;11.63;;;5.45;;
55537;SDS011;41383;51.418;7.286;2023-03-21T00:48:14;10.73;;;4.90;;
55537;SDS011;41383;51.418;7.286;2023-03-21T00:50:39;14.07;;;5.85;;
55537;SDS011;41383;51.418;7.286;2023-03-21T00:53:06;17.73;;;5.15;;
55537;SDS011;41383;51.418;7.286;2023-03-21T00:55:31;15.68;;;4.90;;
55537;SDS011;41383;51.418;7.286;2023-03-21T00:57:57;19.33;;;5.32;;
55537;SDS011;41383;51.418;7.286;2023-03-21T01:00:22;12.63;;;4.97;;
55537;SDS011;41383;51.418;7.286;2023-03-21T01:02:48;11.07;;;4.85;;
55537;SDS011;41383;51.418;7.286;2023-03-21T01:05:23;14.32;;;6.07;;
55537;SDS011;41383;51.418;7.286;2023-03-21T01:08:13;15.35;;;7.57;;
55537;SDS011;41383;51.418;7.286;2023-03-21T01:10:41;14.70;;;6.45;;
55537;SDS011;41383;51.418;7.286;2023-03-21T01:13:09;15.68;;;7.82;;
55537;SDS011;41383;51.418;7.286;2023-03-21T01:15:37;13.45;;;5.43;;
55537;SDS011;41383;51.418;7.286;2023-03-21T01:18:08;17.67;;;7.38;;
55537;SDS011;41383;51.418;7.286;2023-03-21T01:20:33;23.73;;;6.37;;
55537;SDS011;41383;51.418;7.286;2023-03-21T01:22:58;14.73;;;5.93;;
55537;SDS011;41383;51.418;7.286;2023-03-21T01:25:24;15.68;;;6.72;;
55537;SDS011;41383;51.418;7.286;2023-03-21T01:27:50;14.47;;;5.23;;
55537;SDS011;41383;51.418;7.286;2023-03-21T01:30:15;17.55;;;6.93;;
55537;SDS011;41383;51.418;7.286;2023-03-21T01:32:40;12.93;;;5.85;;
55537;SDS011;41383;51.418;7.286;2023-03-21T01:35:06;17.90;;;5.93;;
55537;SDS011;41383;51.418;7.286;2023-03-21T01:37:31;36.83;;;7.82;;
55537;SDS011;41383;51.418;7.286;2023-03-21T01:39:56;16.85;;;5.68;;
55537;SDS011;41383;51.418;7.286;2023-03-21T01:42:22;21.37;;;6.57;;
55537;SDS011;41383;51.418;7.286;2023-03-21T01:44:55;11.05;;;5.78;;
55537;SDS011;41383;51.418;7.286;2023-03-21T01:47:22;14.38;;;6.90;;
55537;SDS011;41383;51.418;7.286;2023-03-21T01:49:54;16.45;;;6.03;;
55537;SDS011;41383;51.418;7.286;2023-03-21T01:52:25;15.32;;;5.70;;
55537;SDS011;41383;51.418;7.286;2023-03-21T01:54:56;14.38;;;7.10;;
55537;SDS011;41383;51.418;7.286;2023-03-21T01:57:29;22.83;;;6.22;;
55537;SDS011;41383;51.418;7.286;2023-03-21T02:00:00;14.90;;;6.55;;
55537;SDS011;41383;51.418;7.286;2023-03-21T02:02:36;11.93;;;5.53;;
55537;SDS011;41383;51.418;7.286;2023-03-21T02:05:14;13.23;;;6.35;;
55537;SDS011;41383;51.418;7.286;2023-03-21T02:07:40;16.83;;;6.75;;
55537;SDS011;41383;51.418;7.286;2023-03-21T02:10:08;15.30;;;7.03;;
55537;SDS011;41383;51.418;7.286;2023-03-21T02:12:37;13.90;;;6.97;;
55537;SDS011;41383;51.418;7.286;2023-03-21T02:15:03;19.45;;;8.07;;
55537;SDS011;41383;51.418;7.286;2023-03-21T02:20:13;13.00;;;6.50;;
55537;SDS011;41383;51.418;7.286;2023-03-21T02:23:05;20.60;;;7.47;;
55537;SDS011;41383;51.418;7.286;2023-03-21T02:25:47;14.65;;;7.53;;
55537;SDS011;41383;51.418;7.286;2023-03-21T02:36:16;12.25;;;6.53;;
55537;SDS011;41383;51.418;7.286;2023-03-21T02:41:31;18.70;;;8.27;;
55537;SDS011;41383;51.418;7.286;2023-03-21T02:52:29;17.23;;;8.55;;
55537;SDS011;41383;51.418;7.286;2023-03-21T02:54:58;16.77;;;7.75;;
55537;SDS011;41383;51.418;7.286;2023-03-21T02:57:28;20.75;;;9.27;;
55537;SDS011;41383;51.418;7.286;2023-03-21T02:59:55;20.25;;;7.30;;
55537;SDS011;41383;51.418;7.286;2023-03-21T03:02:22;19.90;;;8.13;;
55537;SDS011;41383;51.418;7.286;2023-03-21T03:04:51;17.20;;;8.07;;
55537;SDS011;41383;51.418;7.286;2023-03-21T03:07:30;18.67;;;8.77;;
55537;SDS011;41383;51.418;7.286;2023-03-21T03:12:56;25.60;;;8.63;;
55537;SDS011;41383;51.418;7.286;2023-03-21T03:18:19;16.52;;;8.18;;
55537;SDS011;41383;51.418;7.286;2023-03-21T03:21:00;22.02;;;7.78;;
55537;SDS011;41383;51.418;7.286;2023-03-21T03:23:36;17.27;;;8.45;;
55537;SDS011;41383;51.418;7.286;2023-03-21T03:28:59;16.10;;;8.52;;
55537;SDS011;41383;51.418;7.286;2023-03-21T03:31:35;18.45;;;7.40;;
55537;SDS011;41383;51.418;7.286;2023-03-21T03:34:09;14.70;;;7.55;;
55537;SDS011;41383;51.418;7.286;2023-03-21T03:36:45;23.50;;;8.57;;
55537;SDS011;41383;51.418;7.286;2023-03-21T03:39:15;17.77;;;9.07;;
55537;SDS011;41383;51.418;7.286;2023-03-21T03:42:01;21.63;;;8.55;;
55537;SDS011;41383;51.418;7.286;2023-03-21T03:44:31;17.88;;;8.13;;
55537;SDS011;41383;51.418;7.286;2023-03-21T03:47:01;20.10;;;7.55;;
55537;SDS011;41383;51.418;7.286;2023-03-21T03:49:31;15.77;;;8.05;;
55537;SDS011;41383;51.418;7.286;2023-03-21T03:52:11;23.17;;;7.47;;
55537;SDS011;41383;51.418;7.286;2023-03-21T03:54:43;17.98;;;7.68;;
55537;SDS011;41383;51.418;7.286;2023-03-21T03:57:10;21.95;;;7.63;;
55537;SDS011;41383;51.418;7.286;2023-03-21T03:59:38;22.05;;;8.07;;
55537;SDS011;41383;51.418;7.286;2023-03-21T04:02:05;22.27;;;8.95;;
55537;SDS011;41383;51.418;7.286;2023-03-21T04:04:31;16.48;;;8.82;;
55537;SDS011;41383;51.418;7.286;2023-03-21T04:06:57;16.70;;;7.75;;
55537;SDS011;41383;51.418;7.286;2023-03-21T04:09:24;15.07;;;8.15;;
55537;SDS011;41383;51.418;7.286;2023-03-21T04:11:52;14.70;;;7.57;;
55537;SDS011;41383;51.418;7.286;2023-03-21T04:14:18;28.73;;;9.52;;
55537;SDS011;41383;51.418;7.286;2023-03-21T04:16:43;18.38;;;7.72;;
55537;SDS011;41383;51.418;7.286;2023-03-21T04:19:08;22.90;;;8.73;;
55537;SDS011;41383;51.418;7.286;2023-03-21T04:21:33;18.70;;;8.80;;
55537;SDS011;41383;51.418;7.286;2023-03-21T04:23:59;19.58;;;9.23;;
55537;SDS011;41383;51.418;7.286;2023-03-21T04:26:24;15.90;;;7.80;;
55537;SDS011;41383;51.418;7.286;2023-03-21T04:28:55;14.90;;;7.45;;
55537;SDS011;41383;51.418;7.286;2023-03-21T04:31:20;12.98;;;7.40;;
55537;SDS011;41383;51.418;7.286;2023-03-21T04:33:45;17.73;;;7.15;;
55537;SDS011;41383;51.418;7.286;2023-03-21T04:36:12;16.05;;;7.63;;
55537;SDS011;41383;51.418;7.286;2023-03-21T04:38:48;18.98;;;7.90;;
55537;SDS011;41383;51.418;7.286;2023-03-21T04:41:14;21.45;;;11.25;;
55537;SDS011;41383;51.418;7.286;2023-03-21T04:43:39;28.40;;;9.83;;
55537;SDS011;41383;51.418;7.286;2023-03-21T04:46:05;19.00;;;7.97;;
55537;SDS011;41383;51.418;7.286;2023-03-21T04:48:30;20.67;;;9.10;;
55537;SDS011;41383;51.418;7.286;2023-03-21T04:50:55;21.38;;;10.32;;
55537;SDS011;41383;51.418;7.286;2023-03-21T04:53:21;17.13;;;8.43;;
55537;SDS011;41383;51.418;7.286;2023-03-21T04:55:46;19.23;;;8.83;;
55537;SDS011;41383;51.418;7.286;2023-03-21T04:58:11;25.92;;;10.45;;
55537;SDS011;41383;51.418;7.286;2023-03-21T05:00:37;13.73;;;7.03;;
55537;SDS011;41383;51.418;7.286;2023-03-21T05:03:05;16.52;;;7.43;;
55537;SDS011;41383;51.418;7.286;2023-03-21T05:05:35;23.92;;;8.35;;
55537;SDS011;41383;51.418;7.286;2023-03-21T05:08:01;15.27;;;6.97;;
55537;SDS011;41383;51.418;7.286;2023-03-21T05:10:27;17.95;;;7.82;;
55537;SDS011;41383;51.418;7.286;2023-03-21T05:12:52;16.83;;;8.23;;
55537;SDS011;41383;51.418;7.286;2023-03-21T05:15:17;15.57;;;8.03;;
55537;SDS011;41383;51.418;7.286;2023-03-21T05:17:43;17.98;;;7.15;;
55537;SDS011;41383;51.418;7.286;2023-03-21T05:20:09;18.48;;;7.82;;
55537;SDS011;41383;51.418;7.286;2023-03-21T05:22:35;18.65;;;6.55;;
55537;SDS011;41383;51.418;7.286;2023-03-21T05:25:05;15.68;;;7.25;;
55537;SDS011;41383;51.418;7.286;2023-03-21T05:27:34;15.98;;;7.03;;
55537;SDS011;41383;51.418;7.286;2023-03-21T05:32:26;20.40;;;7.43;;
55537;SDS011;41383;51.418;7.286;2023-03-21T05:34:51;26.10;;;6.82;;
55537;SDS011;41383;51.418;7.286;2023-03-21T05:37:16;18.33;;;7.38;;
55537;SDS011;41383;51.418;7.286;2023-03-21T05:39:42;19.65;;;6.78;;
55537;SDS011;41383;51.418;7.286;2023-03-21T05:42:07;16.50;;;7.20;;
55537;SDS011;41383;51.418;7.286;2023-03-21T05:44:32;17.33;;;7.50;;
55537;SDS011;41383;51.418;7.286;2023-03-21T05:46:58;24.80;;;8.73;;
55537;SDS011;41383;51.418;7.286;2023-03-21T05:49:23;15.57;;;6.05;;
55537;SDS011;41383;51.418;7.286;2023-03-21T05:51:48;14.98;;;6.97;;
55537;SDS011;41383;51.418;7.286;2023-03-21T05:54:14;32.80;;;7.45;;
55537;SDS011;41383;51.418;7.286;2023-03-21T05:56:40;17.48;;;7.57;;
55537;SDS011;41383;51.418;7.286;2023-03-21T05:59:06;35.17;;;8.80;;
55537;SDS011;41383;51.418;7.286;2023-03-21T06:01:32;12.27;;;6.60;;
55537;SDS011;41383;51.418;7.286;2023-03-21T06:03:57;21.70;;;6.63;;
55537;SDS011;41383;51.418;7.286;2023-03-21T06:06:22;20.23;;;6.63;;
55537;SDS011;41383;51.418;7.286;2023-03-21T06:08:48;14.43;;;7.25;;
55537;SDS011;41383;51.418;7.286;2023-03-21T06:11:22;21.63;;;8.98;;
55537;SDS011;41383;51.418;7.286;2023-03-21T06:13:49;29.30;;;6.97;;
55537;SDS011;41383;51.418;7.286;2023-03-21T06:16:15;13.20;;;5.80;;
55537;SDS011;41383;51.418;7.286;2023-03-21T06:18:40;16.48;;;6.85;;
55537;SDS011;41383;51.418;7.286;2023-03-21T06:21:05;19.10;;;5.93;;
55537;SDS011;41383;51.418;7.286;2023-03-21T06:23:31;9.73;;;4.82;;
55537;SDS011;41383;51.418;7.286;2023-03-21T06:25:56;13.80;;;5.80;;
55537;SDS011;41383;51.418;7.286;2023-03-21T06:28:21;13.27;;;5.53;;
55537;SDS011;41383;51.418;7.286;2023-03-21T06:30:47;14.38;;;6.55;;
55537;SDS011;41383;51.418;7.286;2023-03-21T06:33:12;11.43;;;6.32;;
55537;SDS011;41383;51.418;7.286;2023-03-21T06:35:37;14.75;;;6.43;;
55537;SDS011;41383;51.418;7.286;2023-03-21T06:38:03;10.18;;;5.00;;
55537;SDS011;41383;51.418;7.286;2023-03-21T06:40:28;12.55;;;5.72;;
55537;SDS011;41383;51.418;7.286;2023-03-21T06:42:54;14.25;;;5.70;;
55537;SDS011;41383;51.418;7.286;2023-03-21T06:45:20;18.02;;;6.25;;
55537;SDS011;41383;51.418;7.286;2023-03-21T06:47:45;16.05;;;6.20;;
55537;SDS011;41383;51.418;7.286;2023-03-21T06:50:11;12.80;;;6.32;;
55537;SDS011;41383;51.418;7.286;2023-03-21T06:52:36;11.63;;;4.90;;
55537;SDS011;41383;51.418;7.286;2023-03-21T06:55:01;18.17;;;5.35;;
55537;SDS011;41383;51.418;7.286;2023-03-21T06:57:26;13.68;;;6.57;;
55537;SDS011;41383;51.418;7.286;2023-03-21T06:59:53;10.55;;;4.85;;
55537;SDS011;41383;51.418;7.286;2023-03-21T07:02:18;12.27;;;5.95;;
55537;SDS011;41383;51.418;7.286;2023-03-21T07:04:44;12.10;;;5.35;;
55537;SDS011;41383;51.418;7.286;2023-03-21T07:07:09;12.15;;;5.03;;
55537;SDS011;41383;51.418;7.286;2023-03-21T07:09:34;11.75;;;4.90;;
55537;SDS011;41383;51.418;7.286;2023-03-21T07:12:00;16.67;;;5.95;;
55537;SDS011;41383;51.418;7.286;2023-03-21T07:14:25;13.93;;;6.00;;
55537;SDS011;41383;51.418;7.286;2023-03-21T07:16:51;15.85;;;6.63;;
55537;SDS011;41383;51.418;7.286;2023-03-21T07:19:16;13.23;;;5.40;;
55537;SDS011;41383;51.418;7.286;2023-03-21T07:21:41;16.75;;;4.53;;
55537;SDS011;41383;51.418;7.286;2023-03-21T07:24:07;15.27;;;5.10;;
55537;SDS011;41383;51.418;7.286;2023-03-21T07:26:32;10.32;;;5.05;;
55537;SDS011;41383;51.418;7.286;2023-03-21T07:28:57;9.63;;;4.75;;
55537;SDS011;41383;51.418;7.286;2023-03-21T07:31:23;15.60;;;5.68;;
55537;SDS011;41383;51.418;7.286;2023-03-21T07:33:50;10.23;;;5.03;;
55537;SDS011;41383;51.418;7.286;2023-03-21T07:36:16;14.50;;;5.10;;
55537;SDS011;41383;51.418;7.286;2023-03-21T07:38:42;8.85;;;5.03;;
55537;SDS011;41383;51.418;7.286;2023-03-21T07:41:09;17.27;;;7.97;;
55537;SDS011;41383;51.418;7.286;2023-03-21T07:43:35;21.65;;;5.47;;
55537;SDS011;41383;51.418;7.286;2023-03-21T07:46:01;18.40;;;5.88;;
55537;SDS011;41383;51.418;7.286;2023-03-21T07:48:27;18.88;;;5.25;;
55537;SDS011;41383;51.418;7.286;2023-03-21T07:50:53;11.57;;;5.57;;
55537;SDS011;41383;51.418;7.286;2023-03-21T07:53:19;17.27;;;6.10;;
55537;SDS011;41383;51.418;7.286;2023-03-21T07:55:48;16.40;;;5.68;;
55537;SDS011;41383;51.418;7.286;2023-03-21T07:58:17;18.45;;;4.95;;
55537;SDS011;41383;51.418;7.286;2023-03-21T08:00:42;17.40;;;6.53;;
55537;SDS011;41383;51.418;7.286;2023-03-21T08:03:08;14.60;;;5.72;;
55537;SDS011;41383;51.418;7.286;2023-03-21T08:05:34;20.33;;;7.43;;
55537;SDS011;41383;51.418;7.286;2023-03-21T08:08:01;15.25;;;6.03;;
55537;SDS011;41383;51.418;7.286;2023-03-21T08:10:27;14.05;;;6.15;;
55537;SDS011;41383;51.418;7.286;2023-03-21T08:12:52;10.55;;;4.97;;
55537;SDS011;41383;51.418;7.286;2023-03-21T08:15:18;13.07;;;5.30;;
55537;SDS011;41383;51.418;7.286;2023-03-21T08:17:43;15.93;;;6.45;;
55537;SDS011;41383;51.418;7.286;2023-03-21T08:20:13;26.13;;;6.43;;
55537;SDS011;41383;51.418;7.286;2023-03-21T08:22:41;25.08;;;7.22;;
55537;SDS011;41383;51.418;7.286;2023-03-21T08:25:08;15.18;;;5.63;;
55537;SDS011;41383;51.418;7.286;2023-03-21T08:27:37;15.63;;;7.40;;
55537;SDS011;41383;51.418;7.286;2023-03-21T08:30:04;21.85;;;6.47;;
55537;SDS011;41383;51.418;7.286;2023-03-21T08:32:30;10.55;;;6.13;;
55537;SDS011;41383;51.418;7.286;2023-03-21T08:34:57;10.70;;;5.93;;
55537;SDS011;41383;51.418;7.286;2023-03-21T08:37:26;15.52;;;6.88;;
55537;SDS011;41383;51.418;7.286;2023-03-21T08:39:52;15.02;;;5.10;;
55537;SDS011;41383;51.418;7.286;2023-03-21T08:42:17;11.57;;;5.65;;
55537;SDS011;41383;51.418;7.286;2023-03-21T08:44:44;10.35;;;6.00;;
55537;SDS011;41383;51.418;7.286;2023-03-21T08:47:10;11.43;;;5.53;;
55537;SDS011;41383;51.418;7.286;2023-03-21T08:49:35;11.57;;;4.25;;
55537;SDS011;41383;51.418;7.286;2023-03-21T08:52:00;19.08;;;5.63;;
55537;SDS011;41383;51.418;7.286;2023-03-21T08:54:26;13.35;;;6.00;;
55537;SDS011;41383;51.418;7.286;2023-03-21T08:56:51;16.10;;;5.10;;
55537;SDS011;41383;51.418;7.286;2023-03-21T08:59:17;14.07;;;7.05;;
55537;SDS011;41383;51.418;7.286;2023-03-21T09:01:42;14.55;;;5.32;;
55537;SDS011;41383;51.418;7.286;2023-03-21T09:04:07;11.88;;;6.05;;
55537;SDS011;41383;51.418;7.286;2023-03-21T09:06:35;12.60;;;7.28;;
55537;SDS011;41383;51.418;7.286;2023-03-21T09:09:09;11.52;;;6.05;;
55537;SDS011;41383;51.418;7.286;2023-03-21T09:11:36;13.68;;;7.22;;
55537;SDS011;41383;51.418;7.286;2023-03-21T09:14:02;15.07;;;6.68;;
55537;SDS011;41383;51.418;7.286;2023-03-21T09:16:27;12.35;;;6.15;;
55537;SDS011;41383;51.418;7.286;2023-03-21T09:18:52;12.60;;;7.35;;
55537;SDS011;41383;51.418;7.286;2023-03-21T09:21:21;16.42;;;7.57;;
55537;SDS011;41383;51.418;7.286;2023-03-21T09:23:47;15.48;;;7.43;;
55537;SDS011;41383;51.418;7.286;2023-03-21T09:26:17;12.88;;;6.72;;
55537;SDS011;41383;51.418;7.286;2023-03-21T09:28:44;13.48;;;6.68;;
55537;SDS011;41383;51.418;7.286;2023-03-21T09:31:13;12.73;;;6.20;;
55537;SDS011;41383;51.418;7.286;2023-03-21T09:33:40;13.80;;;5.88;;
55537;SDS011;41383;51.418;7.286;2023-03-21T09:36:07;12.02;;;4.68;;
55537;SDS011;41383;51.418;7.286;2023-03-21T09:38:37;13.95;;;4.97;;
55537;SDS011;41383;51.418;7.286;2023-03-21T09:49:14;10.93;;;4.43;;
55537;SDS011;41383;51.418;7.286;2023-03-21T09:51:44;8.88;;;4.28;;
55537;SDS011;41383;51.418;7.286;2023-03-21T09:54:16;9.95;;;3.97;;
55537;SDS011;41383;51.418;7.286;2023-03-21T09:56:46;11.25;;;4.32;;
55537;SDS011;41383;51.418;7.286;2023-03-21T09:59:35;10.77;;;5.32;;
55537;SDS011;41383;51.418;7.286;2023-03-21T10:05:00;10.60;;;4.47;;
55537;SDS011;41383;51.418;7.286;2023-03-21T10:07:27;11.13;;;5.47;;
55537;SDS011;41383;51.418;7.286;2023-03-21T10:09:56;13.63;;;5.32;;
55537;SDS011;41383;51.418;7.286;2023-03-21T10:12:24;15.77;;;4.82;;
55537;SDS011;41383;51.418;7.286;2023-03-21T10:14:54;7.10;;;3.72;;
55537;SDS011;41383;51.418;7.286;2023-03-21T10:17:27;8.70;;;3.92;;
55537;SDS011;41383;51.418;7.286;2023-03-21T10:20:07;12.85;;;3.83;;
55537;SDS011;41383;51.418;7.286;2023-03-21T10:22:47;8.32;;;4.47;;
55537;SDS011;41383;51.418;7.286;2023-03-21T10:25:16;10.85;;;3.47;;
55537;SDS011;41383;51.418;7.286;2023-03-21T10:27:44;8.73;;;3.25;;
55537;SDS011;41383;51.418;7.286;2023-03-21T10:30:17;6.53;;;2.85;;
55537;SDS011;41383;51.418;7.286;2023-03-21T10:32:48;9.30;;;3.85;;
55537;SDS011;41383;51.418;7.286;2023-03-21T10:35:14;7.22;;;2.40;;
55537;SDS011;41383;51.418;7.286;2023-03-21T10:37:39;9.35;;;3.92;;
55537;SDS011;41383;51.418;7.286;2023-03-21T10:40:04;9.18;;;3.03;;
55537;SDS011;41383;51.418;7.286;2023-03-21T10:42:33;7.13;;;3.10;;
55537;SDS011;41383;51.418;7.286;2023-03-21T10:45:00;9.32;;;3.33;;
55537;SDS011;41383;51.418;7.286;2023-03-21T10:47:27;11.32;;;3.97;;
55537;SDS011;41383;51.418;7.286;2023-03-21T10:50:00;10.13;;;3.30;;
55537;SDS011;41383;51.418;7.286;2023-03-21T10:52:30;13.38;;;3.22;;
55537;SDS011;41383;51.418;7.286;2023-03-21T10:57:32;12.35;;;3.00;;
55537;SDS011;41383;51.418;7.286;2023-03-21T11:00:02;9.07;;;2.85;;
55537;SDS011;41383;51.418;7.286;2023-03-21T11:02:38;7.78;;;3.88;;
55537;SDS011;41383;51.418;7.286;2023-03-21T11:05:05;6.43;;;2.72;;
55537;SDS011;41383;51.418;7.286;2023-03-21T11:07:38;6.03;;;3.17;;
55537;SDS011;41383;51.418;7.286;2023-03-21T11:10:12;6.82;;;3.50;;
55537;SDS011;41383;51.418;7.286;2023-03-21T11:12:40;7.32;;;3.10;;
55537;SDS011;41383;51.418;7.286;2023-03-21T11:15:30;7.97;;;2.63;;
55537;SDS011;41383;51.418;7.286;2023-03-21T11:17:57;8.50;;;2.78;;
55537;SDS011;41383;51.418;7.286;2023-03-21T11:20:24;9.38;;;2.83;;
55537;SDS011;41383;51.418;7.286;2023-03-21T11:22:53;7.60;;;3.72;;
55537;SDS011;41383;51.418;7.286;2023-03-21T11:25:29;14.80;;;3.13;;
55537;SDS011;41383;51.418;7.286;2023-03-21T11:28:04;5.90;;;2.08;;
55537;SDS011;41383;51.418;7.286;2023-03-21T11:30:32;6.82;;;2.90;;
55537;SDS011;41383;51.418;7.286;2023-03-21T11:33:00;9.80;;;3.00;;
55537;SDS011;41383;51.418;7.286;2023-03-21T11:35:34;7.85;;;3.88;;
55537;SDS011;41383;51.418;7.286;2023-03-21T11:38:01;5.80;;;2.80;;
55537;SDS011;41383;51.418;7.286;2023-03-21T11:40:29;9.15;;;4.00;;
55537;SDS011;41383;51.418;7.286;2023-03-21T11:42:56;9.52;;;3.25;;
55537;SDS011;41383;51.418;7.286;2023-03-21T11:45:31;8.07;;;2.90;;
55537;SDS011;41383;51.418;7.286;2023-03-21T11:47:58;10.70;;;3.90;;
55537;SDS011;41383;51.418;7.286;2023-03-21T11:50:27;6.47;;;3.25;;
55537;SDS011;41383;51.418;7.286;2023-03-21T12:01:35;9.07;;;3.17;;
55537;SDS011;41383;51.418;7.286;2023-03-21T12:09:45;7.57;;;2.85;;
55537;SDS011;41383;51.418;7.286;2023-03-21T12:18:17;8.98;;;2.40;;
55537;SDS011;41383;51.418;7.286;2023-03-21T12:20:59;7.65;;;2.78;;
55537;SDS011;41383;51.418;7.286;2023-03-21T12:23:56;12.10;;;2.75;;
55537;SDS011;41383;51.418;7.286;2023-03-21T12:26:53;7.68;;;2.80;;
55537;SDS011;41383;51.418;7.286;2023-03-21T12:29:27;6.57;;;3.58;;
55537;SDS011;41383;51.418;7.286;2023-03-21T12:40:46;6.38;;;2.45;;
55537;SDS011;41383;51.418;7.286;2023-03-21T12:46:32;8.63;;;3.47;;
55537;SDS011;41383;51.418;7.286;2023-03-21T12:49:04;6.60;;;2.97;;
55537;SDS011;41383;51.418;7.286;2023-03-21T12:51:35;4.63;;;2.35;;
55537;SDS011;41383;51.418;7.286;2023-03-21T12:54:20;7.55;;;2.67;;
55537;SDS011;41383;51.418;7.286;2023-03-21T12:59:33;10.07;;;3.05;;
55537;SDS011;41383;51.418;7.286;2023-03-21T13:04:51;8.45;;;4.35;;
55537;SDS011;41383;51.418;7.286;2023-03-21T13:07:19;7.53;;;2.83;;
55537;SDS011;41383;51.418;7.286;2023-03-21T13:09:49;8.63;;;2.80;;
55537;SDS011;41383;51.418;7.286;2023-03-21T13:12:21;7.60;;;3.67;;
55537;SDS011;41383;51.418;7.286;2023-03-21T13:15:26;6.32;;;2.47;;
55537;SDS011;41383;51.418;7.286;2023-03-21T13:18:32;7.60;;;2.45;;
55537;SDS011;41383;51.418;7.286;2023-03-21T13:21:28;6.65;;;2.75;;
55537;SDS011;41383;51.418;7.286;2023-03-21T13:24:14;7.28;;;3.08;;
55537;SDS011;41383;51.418;7.286;2023-03-21T13:26:44;11.43;;;3.28;;
55537;SDS011;41383;51.418;7.286;2023-03-21T13:29:23;7.05;;;2.92;;
55537;SDS011;41383;51.418;7.286;2023-03-21T13:31:53;8.50;;;3.00;;
55537;SDS011;41383;51.418;7.286;2023-03-21T13:34:20;9.43;;;3.30;;
55537;SDS011;41383;51.418;7.286;2023-03-21T13:36:47;15.77;;;4.13;;
55537;SDS011;41383;51.418;7.286;2023-03-21T13:39:18;8.57;;;2.80;;
55537;SDS011;41383;51.418;7.286;2023-03-21T13:41:48;11.38;;;4.35;;
55537;SDS011;41383;51.418;7.286;2023-03-21T13:44:18;4.97;;;2.70;;
55537;SDS011;41383;51.418;7.286;2023-03-21T13:46:51;9.45;;;3.65;;
55537;SDS011;41383;51.418;7.286;2023-03-21T13:49:29;7.15;;;3.08;;
55537;SDS011;41383;51.418;7.286;2023-03-21T13:51:58;9.23;;;3.47;;
55537;SDS011;41383;51.418;7.286;2023-03-21T13:54:30;7.75;;;2.60;;
55537;SDS011;41383;51.418;7.286;2023-03-21T13:57:19;5.57;;;2.70;;
55537;SDS011;41383;51.418;7.286;2023-03-21T14:00:12;5.53;;;2.92;;
55537;SDS011;41383;51.418;7.286;2023-03-21T14:02:49;7.05;;;2.90;;
55537;SDS011;41383;51.418;7.286;2023-03-21T14:05:20;5.45;;;2.55;;
55537;SDS011;41383;51.418;7.286;2023-03-21T14:07:48;6.78;;;2.50;;
55537;SDS011;41383;51.418;7.286;2023-03-21T14:10:21;13.80;;;2.85;;
55537;SDS011;41383;51.418;7.286;2023-03-21T14:12:50;6.82;;;2.90;;
55537;SDS011;41383;51.418;7.286;2023-03-21T14:15:17;7.50;;;3.03;;
55537;SDS011;41383;51.418;7.286;2023-03-21T14:17:52;19.00;;;3.35;;
55537;SDS011;41383;51.418;7.286;2023-03-21T14:20:24;11.77;;;3.58;;
55537;SDS011;41383;51.418;7.286;2023-03-21T14:22:52;6.07;;;2.45;;
55537;SDS011;41383;51.418;7.286;2023-03-21T14:25:19;10.75;;;3.22;;
55537;SDS011;41383;51.418;7.286;2023-03-21T14:27:48;5.75;;;2.30;;
55537;SDS011;41383;51.418;7.286;2023-03-21T14:30:23;4.55;;;2.30;;
55537;SDS011;41383;51.418;7.286;2023-03-21T14:32:49;6.00;;;2.20;;
55537;SDS011;41383;51.418;7.286;2023-03-21T14:35:17;5.38;;;2.70;;
55537;SDS011;41383;51.418;7.286;2023-03-21T14:37:45;7.70;;;3.47;;
55537;SDS011;41383;51.418;7.286;2023-03-21T14:40:24;6.28;;;3.22;;
55537;SDS011;41383;51.418;7.286;2023-03-21T14:42:52;7.20;;;2.45;;
55537;SDS011;41383;51.418;7.286;2023-03-21T14:45:22;17.38;;;2.95;;
55537;SDS011;41383;51.418;7.286;2023-03-21T14:48:15;16.40;;;3.53;;
55537;SDS011;41383;51.418;7.286;2023-03-21T14:50:47;6.53;;;2.55;;
55537;SDS011;41383;51.418;7.286;2023-03-21T14:53:18;7.57;;;3.10;;
55537;SDS011;41383;51.418;7.286;2023-03-21T14:55:47;6.03;;;2.65;;
55537;SDS011;41383;51.418;7.286;2023-03-21T14:58:38;6.60;;;2.40;;
55537;SDS011;41383;51.418;7.286;2023-03-21T15:01:06;4.78;;;2.03;;
55537;SDS011;41383;51.418;7.286;2023-03-21T15:03:37;6.72;;;3.03;;
55537;SDS011;41383;51.418;7.286;2023-03-21T15:06:03;3.47;;;1.80;;
55537;SDS011;41383;51.418;7.286;2023-03-21T15:08:29;8.45;;;3.05;;
55537;SDS011;41383;51.418;7.286;2023-03-21T15:10:56;4.80;;;2.50;;
55537;SDS011;41383;51.418;7.286;2023-03-21T15:13:24;6.25;;;3.17;;
55537;SDS011;41383;51.418;7.286;2023-03-21T15:15:52;5.97;;;2.92;;
55537;SDS011;41383;51.418;7.286;2023-03-21T15:18:21;8.07;;;3.88;;
55537;SDS011;41383;51.418;7.286;2023-03-21T15:20:51;5.80;;;2.38;;
55537;SDS011;41383;51.418;7.286;2023-03-21T15:26:02;5.97;;;2.70;;
55537;SDS011;41383;51.418;7.286;2023-03-21T15:28:29;6.68;;;3.45;;
55537;SDS011;41383;51.418;7.286;2023-03-21T15:30:55;9.45;;;4.25;;
55537;SDS011;41383;51.418;7.286;2023-03-21T15:33:22;11.25;;;3.03;;
55537;SDS011;41383;51.418;7.286;2023-03-21T15:35:52;5.57;;;2.30;;
55537;SDS011;41383;51.418;7.286;2023-03-21T15:38:21;4.05;;;2.20;;
55537;SDS011;41383;51.418;7.286;2023-03-21T15:40:52;5.97;;;2.75;;
55537;SDS011;41383;51.418;7.286;2023-03-21T15:43:37;5.07;;;2.17;;
55537;SDS011;41383;51.418;7.286;2023-03-21T15:46:03;14.88;;;3.13;;
55537;SDS011;41383;51.418;7.286;2023-03-21T15:48:38;7.22;;;2.97;;
55537;SDS011;41383;51.418;7.286;2023-03-21T15:51:04;9.60;;;2.50;;
55537;SDS011;41383;51.418;7.286;2023-03-21T15:53:31;5.45;;;2.50;;
55537;SDS011;41383;51.418;7.286;2023-03-21T15:55:59;6.65;;;3.05;;
55537;SDS011;41383;51.418;7.286;2023-03-21T15:58:31;7.55;;;3.38;;
55537;SDS011;41383;51.418;7.286;2023-03-21T16:01:03;6.40;;;2.93;;
55537;SDS011;41383;51.418;7.286;2023-03-21T16:03:34;8.63;;;3.10;;
55537;SDS011;41383;51.418;7.286;2023-03-21T16:06:02;7.20;;;3.33;;
55537;SDS011;41383;51.418;7.286;2023-03-21T16:13:48;7.57;;;3.00;;
55537;SDS011;41383;51.418;7.286;2023-03-21T16:16:14;7.93;;;3.78;;
55537;SDS011;41383;51.418;7.286;2023-03-21T16:18:44;6.60;;;2.75;;
55537;SDS011;41383;51.418;7.286;2023-03-21T16:21:11;5.97;;;3.65;;
55537;SDS011;41383;51.418;7.286;2023-03-21T16:23:37;7.13;;;3.60;;